sensor_id;sensor_type;location;lat;lon;timestamp;pressure;altitude;pressure_sealevel;temperature;humidity
72798;BME280;61084;55.816;37.036;2022-07-29T00:02:28;99543.16;;;17.35;66.11
72798;BME280;61084;55.816;37.036;2022-07-29T00:04:54;99540.72;;;17.32;65.79
72798;BME280;61084;55.816;37.036;2022-07-29T00:07:20;99544.59;;;17.28;66.04
72798;BME280;61084;55.816;37.036;2022-07-29T00:09:45;99544.81;;;17.25;66.31
72798;BME280;61084;55.816;37.036;2022-07-29T00:12:11;99540.59;;;17.22;66.23
72798;BME280;61084;55.816;37.036;2022-07-29T00:14:37;99554.97;;;17.20;66.25
72798;BME280;61084;55.816;37.036;2022-07-29T00:17:03;99548.31;;;17.14;66.45
72798;BME280;61084;55.816;37.036;2022-07-29T00:19:29;99553.72;;;17.13;66.87
72798;BME280;61084;55.816;37.036;2022-07-29T00:21:54;99553.00;;;17.11;66.53
72798;BME280;61084;55.816;37.036;2022-07-29T00:24:20;99554.09;;;17.08;66.46
72798;BME280;61084;55.816;37.036;2022-07-29T00:26:46;99554.44;;;17.04;66.32
72798;BME280;61084;55.816;37.036;2022-07-29T00:29:12;99561.78;;;17.00;66.24
72798;BME280;61084;55.816;37.036;2022-07-29T00:31:37;99556.59;;;16.99;66.12
72798;BME280;61084;55.816;37.036;2022-07-29T00:34:03;99557.56;;;16.98;66.24
72798;BME280;61084;55.816;37.036;2022-07-29T00:36:29;99565.88;;;16.93;66.07
72798;BME280;61084;55.816;37.036;2022-07-29T00:38:54;99561.50;;;16.92;66.28
72798;BME280;61084;55.816;37.036;2022-07-29T00:41:20;99559.13;;;16.89;66.53
72798;BME280;61084;55.816;37.036;2022-07-29T00:43:46;99568.38;;;16.84;66.36
72798;BME280;61084;55.816;37.036;2022-07-29T00:46:12;99564.97;;;16.82;66.31
72798;BME280;61084;55.816;37.036;2022-07-29T00:48:38;99566.06;;;16.79;66.58
72798;BME280;61084;55.816;37.036;2022-07-29T00:51:05;99566.19;;;16.78;66.50
72798;BME280;61084;55.816;37.036;2022-07-29T00:53:31;99568.09;;;16.76;66.57
72798;BME280;61084;55.816;37.036;2022-07-29T00:55:58;99577.13;;;16.73;66.50
72798;BME280;61084;55.816;37.036;2022-07-29T00:58:24;99575.69;;;16.69;66.50
72798;BME280;61084;55.816;37.036;2022-07-29T01:00:52;99567.84;;;16.68;66.38
72798;BME280;61084;55.816;37.036;2022-07-29T01:03:17;99577.94;;;16.63;66.38
72798;BME280;61084;55.816;37.036;2022-07-29T01:05:44;99567.69;;;16.58;66.37
72798;BME280;61084;55.816;37.036;2022-07-29T01:08:12;99571.41;;;16.55;66.60
72798;BME280;61084;55.816;37.036;2022-07-29T01:10:39;99564.53;;;16.53;66.27
72798;BME280;61084;55.816;37.036;2022-07-29T01:13:07;99562.13;;;16.50;66.35
72798;BME280;61084;55.816;37.036;2022-07-29T01:15:41;99566.88;;;16.45;66.47
72798;BME280;61084;55.816;37.036;2022-07-29T01:18:16;99572.50;;;16.40;66.51
72798;BME280;61084;55.816;37.036;2022-07-29T01:21:00;99574.56;;;16.37;66.51
72798;BME280;61084;55.816;37.036;2022-07-29T01:26:42;99563.69;;;16.29;66.35
72798;BME280;61084;55.816;37.036;2022-07-29T01:29:12;99570.88;;;16.27;66.15
72798;BME280;61084;55.816;37.036;2022-07-29T01:32:01;99569.31;;;16.24;66.46
72798;BME280;61084;55.816;37.036;2022-07-29T01:34:34;99574.81;;;16.21;66.16
72798;BME280;61084;55.816;37.036;2022-07-29T01:40:04;99568.59;;;16.10;66.43
72798;BME280;61084;55.816;37.036;2022-07-29T01:42:43;99572.22;;;16.09;66.53
72798;BME280;61084;55.816;37.036;2022-07-29T01:45:50;99575.22;;;16.04;66.52
72798;BME280;61084;55.816;37.036;2022-07-29T01:48:40;99578.06;;;16.01;66.30
72798;BME280;61084;55.816;37.036;2022-07-29T01:51:24;99582.63;;;15.99;66.50
72798;BME280;61084;55.816;37.036;2022-07-29T01:56:40;99586.91;;;15.89;66.31
72798;BME280;61084;55.816;37.036;2022-07-29T01:59:09;99583.59;;;15.85;66.17
72798;BME280;61084;55.816;37.036;2022-07-29T02:01:37;99582.06;;;15.83;66.21
72798;BME280;61084;55.816;37.036;2022-07-29T02:04:06;99577.81;;;15.80;66.08
72798;BME280;61084;55.816;37.036;2022-07-29T02:06:34;99578.75;;;15.79;66.23
72798;BME280;61084;55.816;37.036;2022-07-29T02:09:03;99578.03;;;15.77;66.15
72798;BME280;61084;55.816;37.036;2022-07-29T02:11:32;99578.03;;;15.77;66.16
72798;BME280;61084;55.816;37.036;2022-07-29T02:14:00;99582.47;;;15.77;66.26
72798;BME280;61084;55.816;37.036;2022-07-29T02:16:30;99582.47;;;15.77;66.25
72798;BME280;61084;55.816;37.036;2022-07-29T02:18:57;99579.81;;;15.77;66.22
72798;BME280;61084;55.816;37.036;2022-07-29T02:21:26;99577.28;;;15.75;66.23
72798;BME280;61084;55.816;37.036;2022-07-29T02:23:54;99571.25;;;15.73;66.28
72798;BME280;61084;55.816;37.036;2022-07-29T02:26:24;99573.91;;;15.73;66.62
72798;BME280;61084;55.816;37.036;2022-07-29T02:28:52;99572.97;;;15.74;66.71
72798;BME280;61084;55.816;37.036;2022-07-29T02:31:21;99579.94;;;15.75;66.72
72798;BME280;61084;55.816;37.036;2022-07-29T02:33:49;99581.72;;;15.75;66.68
72798;BME280;61084;55.816;37.036;2022-07-29T02:36:15;99574.53;;;15.77;66.82
72798;BME280;61084;55.816;37.036;2022-07-29T02:38:42;99580.78;;;15.76;67.05
72798;BME280;61084;55.816;37.036;2022-07-29T02:43:58;99584.06;;;15.79;67.01
72798;BME280;61084;55.816;37.036;2022-07-29T02:46:35;99585.03;;;15.78;66.97
72798;BME280;61084;55.816;37.036;2022-07-29T02:51:41;99583.59;;;15.85;67.12
72798;BME280;61084;55.816;37.036;2022-07-29T02:54:10;99584.25;;;15.89;67.23
72798;BME280;61084;55.816;37.036;2022-07-29T02:56:39;99587.63;;;15.91;67.07
72798;BME280;61084;55.816;37.036;2022-07-29T02:59:10;99579.38;;;15.96;67.16
72798;BME280;61084;55.816;37.036;2022-07-29T03:01:40;99574.59;;;16.01;67.15
72798;BME280;61084;55.816;37.036;2022-07-29T03:04:08;99575.09;;;16.06;67.18
72798;BME280;61084;55.816;37.036;2022-07-29T03:06:35;99577.41;;;16.10;67.11
72798;BME280;61084;55.816;37.036;2022-07-29T03:09:03;99578.78;;;16.16;67.21
72798;BME280;61084;55.816;37.036;2022-07-29T03:11:29;99583.63;;;16.22;67.08
72798;BME280;61084;55.816;37.036;2022-07-29T03:13:55;99583.16;;;16.28;67.00
72798;BME280;61084;55.816;37.036;2022-07-29T03:16:21;99582.72;;;16.34;67.43
72798;BME280;61084;55.816;37.036;2022-07-29T03:18:50;99584.16;;;16.38;67.03
72798;BME280;61084;55.816;37.036;2022-07-29T03:21:16;99583.63;;;16.45;66.72
72798;BME280;61084;55.816;37.036;2022-07-29T03:23:45;99584.16;;;16.50;67.02
72798;BME280;61084;55.816;37.036;2022-07-29T03:26:12;99586.34;;;16.56;66.93
72798;BME280;61084;55.816;37.036;2022-07-29T03:28:38;99584.19;;;16.62;66.75
72798;BME280;61084;55.816;37.036;2022-07-29T03:31:04;99590.13;;;16.65;66.83
72798;BME280;61084;55.816;37.036;2022-07-29T03:33:29;99586.06;;;16.72;67.12
72798;BME280;61084;55.816;37.036;2022-07-29T03:35:56;99584.75;;;16.78;66.76
72798;BME280;61084;55.816;37.036;2022-07-29T03:38:24;99592.00;;;16.87;66.78
72798;BME280;61084;55.816;37.036;2022-07-29T03:41:02;99584.44;;;16.93;66.71
72798;BME280;61084;55.816;37.036;2022-07-29T03:43:34;99589.63;;;16.95;66.49
72798;BME280;61084;55.816;37.036;2022-07-29T03:46:02;99584.81;;;17.00;66.47
72798;BME280;61084;55.816;37.036;2022-07-29T03:48:30;99584.22;;;17.07;66.10
72798;BME280;61084;55.816;37.036;2022-07-29T03:50:58;99584.50;;;17.15;65.94
72798;BME280;61084;55.816;37.036;2022-07-29T03:53:24;99588.97;;;17.26;66.43
72798;BME280;61084;55.816;37.036;2022-07-29T03:55:53;99591.72;;;17.35;66.68
72798;BME280;61084;55.816;37.036;2022-07-29T03:58:19;99602.63;;;17.44;66.25
72798;BME280;61084;55.816;37.036;2022-07-29T04:00:46;99593.13;;;17.52;65.96
72798;BME280;61084;55.816;37.036;2022-07-29T04:03:12;99594.22;;;17.61;66.22
72798;BME280;61084;55.816;37.036;2022-07-29T04:05:38;99593.59;;;17.68;65.84
72798;BME280;61084;55.816;37.036;2022-07-29T04:08:04;99595.78;;;17.74;65.65
72798;BME280;61084;55.816;37.036;2022-07-29T04:10:30;99588.78;;;17.84;65.72
72798;BME280;61084;55.816;37.036;2022-07-29T04:12:56;99594.06;;;17.95;65.46
72798;BME280;61084;55.816;37.036;2022-07-29T04:15:22;99590.69;;;18.04;65.54
72798;BME280;61084;55.816;37.036;2022-07-29T04:17:47;99594.56;;;18.12;65.08
72798;BME280;61084;55.816;37.036;2022-07-29T04:20:13;99588.72;;;18.18;65.14
72798;BME280;61084;55.816;37.036;2022-07-29T04:22:40;99599.44;;;18.27;64.81
72798;BME280;61084;55.816;37.036;2022-07-29T04:25:06;99606.66;;;18.36;64.91
72798;BME280;61084;55.816;37.036;2022-07-29T04:27:32;99604.63;;;18.40;64.90
72798;BME280;61084;55.816;37.036;2022-07-29T04:29:58;99604.16;;;18.46;64.31
72798;BME280;61084;55.816;37.036;2022-07-29T04:32:25;99604.34;;;18.54;64.71
72798;BME280;61084;55.816;37.036;2022-07-29T04:34:51;99605.41;;;18.62;64.41
72798;BME280;61084;55.816;37.036;2022-07-29T04:37:17;99609.03;;;18.72;64.27
72798;BME280;61084;55.816;37.036;2022-07-29T04:39:43;99611.34;;;18.87;64.28
72798;BME280;61084;55.816;37.036;2022-07-29T04:42:08;99606.38;;;18.93;63.54
72798;BME280;61084;55.816;37.036;2022-07-29T04:44:34;99611.06;;;19.01;63.71
72798;BME280;61084;55.816;37.036;2022-07-29T04:47:00;99614.47;;;19.12;63.53
72798;BME280;61084;55.816;37.036;2022-07-29T04:49:26;99611.06;;;19.21;63.51
72798;BME280;61084;55.816;37.036;2022-07-29T04:51:51;99619.22;;;19.29;63.12
72798;BME280;61084;55.816;37.036;2022-07-29T04:54:17;99609.06;;;19.34;63.21
72798;BME280;61084;55.816;37.036;2022-07-29T04:56:43;99619.63;;;19.45;63.11
72798;BME280;61084;55.816;37.036;2022-07-29T04:59:09;99613.63;;;19.53;62.61
72798;BME280;61084;55.816;37.036;2022-07-29T05:01:35;99606.69;;;19.62;62.48
72798;BME280;61084;55.816;37.036;2022-07-29T05:04:01;99605.63;;;19.74;62.55
72798;BME280;61084;55.816;37.036;2022-07-29T05:06:26;99609.16;;;19.84;62.08
72798;BME280;61084;55.816;37.036;2022-07-29T05:08:52;99611.88;;;19.93;62.33
72798;BME280;61084;55.816;37.036;2022-07-29T05:11:18;99598.59;;;20.03;61.93
72798;BME280;61084;55.816;37.036;2022-07-29T05:13:44;99604.97;;;20.21;61.95
72798;BME280;61084;55.816;37.036;2022-07-29T05:16:10;99600.22;;;20.34;61.08
72798;BME280;61084;55.816;37.036;2022-07-29T05:18:36;99604.03;;;20.41;60.90
72798;BME280;61084;55.816;37.036;2022-07-29T05:21:01;99606.72;;;20.51;61.05
72798;BME280;61084;55.816;37.036;2022-07-29T05:23:28;99608.28;;;20.63;60.97
72798;BME280;61084;55.816;37.036;2022-07-29T05:25:54;99610.81;;;20.74;60.25
72798;BME280;61084;55.816;37.036;2022-07-29T05:28:19;99611.22;;;20.79;60.15
72798;BME280;61084;55.816;37.036;2022-07-29T05:30:45;99614.03;;;20.87;60.21
72798;BME280;61084;55.816;37.036;2022-07-29T05:33:11;99611.50;;;20.95;59.97
72798;BME280;61084;55.816;37.036;2022-07-29T05:35:37;99620.78;;;21.00;59.01
72798;BME280;61084;55.816;37.036;2022-07-29T05:38:03;99605.63;;;21.11;59.40
72798;BME280;61084;55.816;37.036;2022-07-29T05:40:29;99609.25;;;21.19;58.90
72798;BME280;61084;55.816;37.036;2022-07-29T05:42:55;99609.66;;;21.34;59.16
72798;BME280;61084;55.816;37.036;2022-07-29T05:45:21;99607.81;;;21.44;58.54
72798;BME280;61084;55.816;37.036;2022-07-29T05:47:47;99610.44;;;21.53;58.30
72798;BME280;61084;55.816;37.036;2022-07-29T05:50:13;99612.94;;;21.64;57.91
72798;BME280;61084;55.816;37.036;2022-07-29T05:52:39;99599.41;;;21.75;57.00
72798;BME280;61084;55.816;37.036;2022-07-29T05:55:05;99598.81;;;21.82;57.18
72798;BME280;61084;55.816;37.036;2022-07-29T05:57:31;99592.78;;;21.89;56.04
72798;BME280;61084;55.816;37.036;2022-07-29T05:59:56;99592.41;;;22.02;56.41
72798;BME280;61084;55.816;37.036;2022-07-29T06:02:22;99591.81;;;22.08;56.82
72798;BME280;61084;55.816;37.036;2022-07-29T06:04:48;99596.84;;;22.20;56.30
72798;BME280;61084;55.816;37.036;2022-07-29T06:07:14;99594.41;;;22.27;55.77
72798;BME280;61084;55.816;37.036;2022-07-29T06:09:42;99596.63;;;22.31;55.77
72798;BME280;61084;55.816;37.036;2022-07-29T06:12:08;99595.41;;;22.43;55.51
72798;BME280;61084;55.816;37.036;2022-07-29T06:14:34;99597.88;;;22.55;54.95
72798;BME280;61084;55.816;37.036;2022-07-29T06:17:00;99603.72;;;22.68;55.53
72798;BME280;61084;55.816;37.036;2022-07-29T06:19:26;99605.09;;;22.72;55.03
72798;BME280;61084;55.816;37.036;2022-07-29T06:21:52;99599.97;;;22.78;54.69
72798;BME280;61084;55.816;37.036;2022-07-29T06:24:18;99599.75;;;22.72;52.49
72798;BME280;61084;55.816;37.036;2022-07-29T06:26:44;99604.34;;;22.62;53.75
72798;BME280;61084;55.816;37.036;2022-07-29T06:29:10;99594.88;;;22.58;54.33
72798;BME280;61084;55.816;37.036;2022-07-29T06:31:36;99590.13;;;22.51;54.02
72798;BME280;61084;55.816;37.036;2022-07-29T06:34:03;99596.94;;;22.46;54.13
72798;BME280;61084;55.816;37.036;2022-07-29T06:36:28;99593.59;;;22.44;54.36
72798;BME280;61084;55.816;37.036;2022-07-29T06:38:54;99591.78;;;22.62;54.07
72798;BME280;61084;55.816;37.036;2022-07-29T06:41:20;99589.78;;;22.64;53.35
72798;BME280;61084;55.816;37.036;2022-07-29T06:43:46;99593.53;;;22.71;53.99
72798;BME280;61084;55.816;37.036;2022-07-29T06:46:14;99596.75;;;22.75;53.85
72798;BME280;61084;55.816;37.036;2022-07-29T06:48:41;99591.03;;;22.70;53.91
72798;BME280;61084;55.816;37.036;2022-07-29T06:51:10;99597.91;;;22.72;53.58
72798;BME280;61084;55.816;37.036;2022-07-29T06:53:37;99593.53;;;22.89;52.98
72798;BME280;61084;55.816;37.036;2022-07-29T06:56:05;99594.34;;;23.07;53.14
72798;BME280;61084;55.816;37.036;2022-07-29T06:58:31;99590.28;;;23.20;52.72
72798;BME280;61084;55.816;37.036;2022-07-29T07:00:58;99594.84;;;23.28;52.28
72798;BME280;61084;55.816;37.036;2022-07-29T07:03:26;99592.84;;;23.30;51.28
72798;BME280;61084;55.816;37.036;2022-07-29T07:05:52;99592.78;;;23.40;51.72
72798;BME280;61084;55.816;37.036;2022-07-29T07:08:20;99585.66;;;23.48;51.28
72798;BME280;61084;55.816;37.036;2022-07-29T07:10:46;99589.16;;;23.49;51.13
72798;BME280;61084;55.816;37.036;2022-07-29T07:13:12;99582.50;;;23.53;50.93
72798;BME280;61084;55.816;37.036;2022-07-29T07:15:38;99589.03;;;23.58;51.36
72798;BME280;61084;55.816;37.036;2022-07-29T07:18:04;99585.91;;;23.71;50.64
72798;BME280;61084;55.816;37.036;2022-07-29T07:20:32;99596.44;;;23.90;51.70
72798;BME280;61084;55.816;37.036;2022-07-29T07:22:58;99592.28;;;24.04;49.27
72798;BME280;61084;55.816;37.036;2022-07-29T07:25:24;99592.84;;;24.07;49.78
72798;BME280;61084;55.816;37.036;2022-07-29T07:27:50;99595.03;;;24.12;49.57
72798;BME280;61084;55.816;37.036;2022-07-29T07:30:15;99602.03;;;24.05;49.91
72798;BME280;61084;55.816;37.036;2022-07-29T07:32:41;99605.56;;;24.05;50.23
72798;BME280;61084;55.816;37.036;2022-07-29T07:35:09;99597.63;;;23.95;49.03
72798;BME280;61084;55.816;37.036;2022-07-29T07:37:35;99590.66;;;23.77;49.51
72798;BME280;61084;55.816;37.036;2022-07-29T07:40:01;99595.19;;;23.76;50.35
72798;BME280;61084;55.816;37.036;2022-07-29T07:42:30;99596.44;;;23.64;49.48
72798;BME280;61084;55.816;37.036;2022-07-29T07:44:55;99602.41;;;23.50;49.50
72798;BME280;61084;55.816;37.036;2022-07-29T07:47:21;99604.06;;;23.51;50.13
72798;BME280;61084;55.816;37.036;2022-07-29T07:49:50;99599.34;;;23.45;49.22
72798;BME280;61084;55.816;37.036;2022-07-29T07:52:17;99599.00;;;23.40;49.53
72798;BME280;61084;55.816;37.036;2022-07-29T07:54:43;99609.94;;;23.47;49.63
72798;BME280;61084;55.816;37.036;2022-07-29T07:57:11;99605.81;;;23.60;49.33
72798;BME280;61084;55.816;37.036;2022-07-29T07:59:38;99599.53;;;23.77;48.96
72798;BME280;61084;55.816;37.036;2022-07-29T08:02:05;99608.25;;;23.79;48.91
72798;BME280;61084;55.816;37.036;2022-07-29T08:04:31;99614.59;;;23.70;49.04
72798;BME280;61084;55.816;37.036;2022-07-29T08:06:58;99613.53;;;23.63;48.67
72798;BME280;61084;55.816;37.036;2022-07-29T08:09:25;99610.78;;;23.81;48.61
72798;BME280;61084;55.816;37.036;2022-07-29T08:11:51;99603.16;;;23.94;47.73
72798;BME280;61084;55.816;37.036;2022-07-29T08:14:18;99608.72;;;24.01;44.60
72798;BME280;61084;55.816;37.036;2022-07-29T08:16:44;99602.91;;;24.05;47.51
72798;BME280;61084;55.816;37.036;2022-07-29T08:19:10;99609.63;;;24.17;47.19
72798;BME280;61084;55.816;37.036;2022-07-29T08:21:35;99600.78;;;24.25;47.30
72798;BME280;61084;55.816;37.036;2022-07-29T08:24:02;99602.44;;;24.26;47.69
72798;BME280;61084;55.816;37.036;2022-07-29T08:26:46;99605.69;;;24.37;47.12
72798;BME280;61084;55.816;37.036;2022-07-29T08:29:12;99603.88;;;24.54;46.49
72798;BME280;61084;55.816;37.036;2022-07-29T08:31:40;99602.38;;;24.59;47.54
72798;BME280;61084;55.816;37.036;2022-07-29T08:34:06;99609.28;;;24.62;47.15
72798;BME280;61084;55.816;37.036;2022-07-29T08:36:33;99608.94;;;24.65;46.17
72798;BME280;61084;55.816;37.036;2022-07-29T08:39:00;99606.41;;;24.71;45.49
72798;BME280;61084;55.816;37.036;2022-07-29T08:41:26;99605.25;;;24.74;45.21
72798;BME280;61084;55.816;37.036;2022-07-29T08:43:52;99603.72;;;24.71;43.91
72798;BME280;61084;55.816;37.036;2022-07-29T08:46:19;99603.28;;;24.76;46.14
72798;BME280;61084;55.816;37.036;2022-07-29T08:48:45;99606.94;;;24.75;44.81
72798;BME280;61084;55.816;37.036;2022-07-29T08:51:16;99607.75;;;24.67;45.50
72798;BME280;61084;55.816;37.036;2022-07-29T08:53:43;99609.50;;;24.77;42.60
72798;BME280;61084;55.816;37.036;2022-07-29T08:56:16;99601.25;;;24.78;43.16
72798;BME280;61084;55.816;37.036;2022-07-29T08:58:43;99604.78;;;24.95;43.58
72798;BME280;61084;55.816;37.036;2022-07-29T09:01:10;99605.31;;;25.06;44.56
72798;BME280;61084;55.816;37.036;2022-07-29T09:03:37;99605.28;;;25.14;43.25
72798;BME280;61084;55.816;37.036;2022-07-29T09:06:05;99601.13;;;25.12;45.63
72798;BME280;61084;55.816;37.036;2022-07-29T09:08:32;99604.13;;;25.25;44.68
72798;BME280;61084;55.816;37.036;2022-07-29T09:10:58;99604.94;;;25.25;44.34
72798;BME280;61084;55.816;37.036;2022-07-29T09:13:25;99601.25;;;25.34;44.63
72798;BME280;61084;55.816;37.036;2022-07-29T09:15:51;99608.50;;;25.42;42.69
72798;BME280;61084;55.816;37.036;2022-07-29T09:18:40;99613.19;;;25.56;42.36
72798;BME280;61084;55.816;37.036;2022-07-29T09:21:09;99604.25;;;25.72;44.62
72798;BME280;61084;55.816;37.036;2022-07-29T09:24:11;99606.94;;;25.72;42.87
72798;BME280;61084;55.816;37.036;2022-07-29T09:26:40;99610.31;;;25.66;41.84
72798;BME280;61084;55.816;37.036;2022-07-29T09:31:37;99615.34;;;25.61;43.96
72798;BME280;61084;55.816;37.036;2022-07-29T09:34:05;99600.03;;;25.69;43.81
72798;BME280;61084;55.816;37.036;2022-07-29T09:36:31;99596.94;;;25.88;43.84
72798;BME280;61084;55.816;37.036;2022-07-29T09:39:03;99601.47;;;25.96;43.63
72798;BME280;61084;55.816;37.036;2022-07-29T09:41:29;99605.69;;;25.90;41.16
72798;BME280;61084;55.816;37.036;2022-07-29T09:43:59;99612.41;;;25.94;42.38
72798;BME280;61084;55.816;37.036;2022-07-29T09:46:25;99615.47;;;25.83;42.51
72798;BME280;61084;55.816;37.036;2022-07-29T09:49:11;99626.25;;;25.67;42.08
72798;BME280;61084;55.816;37.036;2022-07-29T09:51:38;99621.41;;;25.71;42.36
72798;BME280;61084;55.816;37.036;2022-07-29T09:54:23;99623.91;;;25.72;41.69
72798;BME280;61084;55.816;37.036;2022-07-29T09:56:49;99624.72;;;25.81;43.15
72798;BME280;61084;55.816;37.036;2022-07-29T09:59:15;99611.25;;;25.89;42.47
72798;BME280;61084;55.816;37.036;2022-07-29T10:01:41;99617.75;;;26.02;41.92
72798;BME280;61084;55.816;37.036;2022-07-29T10:04:07;99611.00;;;26.14;41.00
72798;BME280;61084;55.816;37.036;2022-07-29T10:06:33;99606.88;;;26.35;42.67
72798;BME280;61084;55.816;37.036;2022-07-29T10:09:08;99616.19;;;26.55;41.82
72798;BME280;61084;55.816;37.036;2022-07-29T10:11:34;99614.09;;;26.42;41.96
72798;BME280;61084;55.816;37.036;2022-07-29T10:14:01;99611.25;;;26.36;40.93
72798;BME280;61084;55.816;37.036;2022-07-29T10:16:27;99614.09;;;26.42;41.41
72798;BME280;61084;55.816;37.036;2022-07-29T10:19:00;99617.63;;;26.35;38.18
72798;BME280;61084;55.816;37.036;2022-07-29T10:21:27;99612.66;;;26.24;40.98
72798;BME280;61084;55.816;37.036;2022-07-29T10:23:53;99607.97;;;26.17;41.04
72798;BME280;61084;55.816;37.036;2022-07-29T10:26:19;99620.75;;;26.15;41.25
72798;BME280;61084;55.816;37.036;2022-07-29T10:28:45;99613.88;;;26.05;39.58
72798;BME280;61084;55.816;37.036;2022-07-29T10:31:34;99610.34;;;26.04;39.22
72798;BME280;61084;55.816;37.036;2022-07-29T10:34:13;99606.13;;;26.18;41.84
72798;BME280;61084;55.816;37.036;2022-07-29T10:39:52;99608.56;;;26.36;41.07
72798;BME280;61084;55.816;37.036;2022-07-29T10:42:23;99594.66;;;26.55;41.16
72798;BME280;61084;55.816;37.036;2022-07-29T10:44:50;99597.06;;;26.72;41.82
72798;BME280;61084;55.816;37.036;2022-07-29T10:47:24;99596.94;;;26.66;41.12
72798;BME280;61084;55.816;37.036;2022-07-29T10:50:01;99589.13;;;26.48;41.39
72798;BME280;61084;55.816;37.036;2022-07-29T10:55:36;99600.44;;;26.74;40.75
72798;BME280;61084;55.816;37.036;2022-07-29T10:58:18;99599.91;;;26.71;40.03
72798;BME280;61084;55.816;37.036;2022-07-29T11:00:47;99599.38;;;26.83;40.78
72798;BME280;61084;55.816;37.036;2022-07-29T11:03:44;99604.47;;;27.01;39.62
72798;BME280;61084;55.816;37.036;2022-07-29T11:06:15;99597.13;;;27.10;40.64
72798;BME280;61084;55.816;37.036;2022-07-29T11:08:41;99597.53;;;27.21;40.63
72798;BME280;61084;55.816;37.036;2022-07-29T11:13:47;99597.22;;;27.39;40.32
72798;BME280;61084;55.816;37.036;2022-07-29T11:16:14;99600.78;;;27.54;41.07
72798;BME280;61084;55.816;37.036;2022-07-29T11:21:46;99588.59;;;27.58;39.95
72798;BME280;61084;55.816;37.036;2022-07-29T11:24:19;99593.34;;;27.56;39.52
72798;BME280;61084;55.816;37.036;2022-07-29T11:27:09;99594.47;;;27.61;37.92
72798;BME280;61084;55.816;37.036;2022-07-29T11:29:39;99582.56;;;27.71;38.46
72798;BME280;61084;55.816;37.036;2022-07-29T11:32:11;99582.66;;;27.77;39.17
72798;BME280;61084;55.816;37.036;2022-07-29T11:34:37;99585.28;;;28.00;40.02
72798;BME280;61084;55.816;37.036;2022-07-29T11:47:29;99588.06;;;28.57;39.30
72798;BME280;61084;55.816;37.036;2022-07-29T11:49:56;99587.59;;;28.53;38.57
72798;BME280;61084;55.816;37.036;2022-07-29T11:52:23;99586.50;;;28.62;38.30
72798;BME280;61084;55.816;37.036;2022-07-29T11:54:57;99594.13;;;28.59;37.43
72798;BME280;61084;55.816;37.036;2022-07-29T11:57:24;99590.88;;;28.49;37.49
72798;BME280;61084;55.816;37.036;2022-07-29T11:59:50;99596.13;;;28.21;37.21
72798;BME280;61084;55.816;37.036;2022-07-29T12:02:16;99595.69;;;28.17;37.72
72798;BME280;61084;55.816;37.036;2022-07-29T12:04:53;99593.75;;;28.11;37.06
72798;BME280;61084;55.816;37.036;2022-07-29T12:07:29;99583.78;;;28.12;36.81
72798;BME280;61084;55.816;37.036;2022-07-29T12:09:56;99591.22;;;28.24;38.12
72798;BME280;61084;55.816;37.036;2022-07-29T12:12:22;99584.91;;;28.38;37.95
72798;BME280;61084;55.816;37.036;2022-07-29T12:14:49;99583.00;;;28.32;38.59
72798;BME280;61084;55.816;37.036;2022-07-29T12:17:31;99581.28;;;28.46;37.28
72798;BME280;61084;55.816;37.036;2022-07-29T12:19:59;99581.47;;;28.59;37.34
72798;BME280;61084;55.816;37.036;2022-07-29T12:22:30;99586.41;;;28.56;36.08
72798;BME280;61084;55.816;37.036;2022-07-29T12:25:02;99581.53;;;28.66;36.49
72798;BME280;61084;55.816;37.036;2022-07-29T12:27:29;99576.75;;;28.89;37.38
72798;BME280;61084;55.816;37.036;2022-07-29T12:29:59;99580.00;;;28.99;36.16
72798;BME280;61084;55.816;37.036;2022-07-29T12:34:59;99578.78;;;29.23;36.35
72798;BME280;61084;55.816;37.036;2022-07-29T12:37:25;99576.94;;;29.30;36.90
72798;BME280;61084;55.816;37.036;2022-07-29T12:39:51;99580.00;;;29.48;37.61
72798;BME280;61084;55.816;37.036;2022-07-29T12:42:17;99572.75;;;29.55;35.72
72798;BME280;61084;55.816;37.036;2022-07-29T12:44:47;99568.22;;;29.62;36.12
72798;BME280;61084;55.816;37.036;2022-07-29T12:47:14;99579.28;;;29.67;36.41
72798;BME280;61084;55.816;37.036;2022-07-29T12:49:39;99575.34;;;29.69;36.52
72798;BME280;61084;55.816;37.036;2022-07-29T12:52:28;99573.16;;;29.79;34.74
72798;BME280;61084;55.816;37.036;2022-07-29T12:54:55;99576.69;;;29.80;36.53
72798;BME280;61084;55.816;37.036;2022-07-29T12:57:21;99570.53;;;29.65;36.58
72798;BME280;61084;55.816;37.036;2022-07-29T13:00:09;99571.19;;;29.73;35.43
72798;BME280;61084;55.816;37.036;2022-07-29T13:02:37;99569.81;;;29.84;35.47
72798;BME280;61084;55.816;37.036;2022-07-29T13:05:04;99572.56;;;29.91;35.41
72798;BME280;61084;55.816;37.036;2022-07-29T13:07:32;99574.28;;;29.98;35.41
72798;BME280;61084;55.816;37.036;2022-07-29T13:10:21;99563.47;;;29.98;35.51
72798;BME280;61084;55.816;37.036;2022-07-29T13:13:12;99567.72;;;30.20;35.32
72798;BME280;61084;55.816;37.036;2022-07-29T13:15:43;99570.25;;;30.28;34.80
72798;BME280;61084;55.816;37.036;2022-07-29T13:20:54;99572.03;;;30.56;35.67
72798;BME280;61084;55.816;37.036;2022-07-29T13:23:20;99563.09;;;30.62;35.42
72798;BME280;61084;55.816;37.036;2022-07-29T13:25:46;99573.31;;;30.60;34.90
72798;BME280;61084;55.816;37.036;2022-07-29T13:28:11;99571.00;;;30.57;35.14
72798;BME280;61084;55.816;37.036;2022-07-29T13:30:40;99573.31;;;30.60;34.29
72798;BME280;61084;55.816;37.036;2022-07-29T13:33:06;99572.03;;;30.56;34.96
72798;BME280;61084;55.816;37.036;2022-07-29T13:35:32;99575.34;;;30.44;35.75
72798;BME280;61084;55.816;37.036;2022-07-29T13:37:57;99580.88;;;30.30;34.96
72798;BME280;61084;55.816;37.036;2022-07-29T13:40:23;99580.66;;;30.25;35.51
72798;BME280;61084;55.816;37.036;2022-07-29T13:42:49;99580.75;;;30.38;35.46